createdAt,value
2022-08-17T00:00:56.026Z,9.80
2022-08-17T00:03:32.327Z,10.85
2022-08-17T00:06:02.230Z,9.98
2022-08-17T00:08:34.551Z,10.75
2022-08-17T00:11:02.054Z,9.43
2022-08-17T00:13:30.592Z,15.38
2022-08-17T00:15:59.731Z,10.98
2022-08-17T00:19:00.382Z,10.18
2022-08-17T00:21:23.626Z,10.38
2022-08-17T00:23:51.588Z,10.43
2022-08-17T00:26:34.733Z,10.88
2022-08-17T00:29:06.287Z,10.90
2022-08-17T00:31:33.584Z,10.90
2022-08-17T00:34:00.206Z,13.80
2022-08-17T00:36:27.665Z,10.00
2022-08-17T00:38:54.078Z,9.90
2022-08-17T00:41:23.590Z,9.85
2022-08-17T00:43:49.965Z,11.77
2022-08-17T00:46:21.807Z,10.80
2022-08-17T00:48:50.170Z,12.88
2022-08-17T00:51:22.578Z,10.80
2022-08-17T00:53:56.373Z,11.32
2022-08-17T00:56:26.246Z,10.90
2022-08-17T00:58:54.330Z,10.40
2022-08-17T01:01:22.141Z,10.40
2022-08-17T01:03:49.175Z,11.18
2022-08-17T01:06:15.777Z,13.43
2022-08-17T01:08:42.585Z,11.43
2022-08-17T01:11:09.047Z,11.80
2022-08-17T01:13:41.493Z,12.98
2022-08-17T01:16:22.118Z,10.82
2022-08-17T01:18:50.853Z,10.80
2022-08-17T01:21:22.395Z,11.30
2022-08-17T01:23:49.030Z,11.32
2022-08-17T01:26:15.908Z,10.93
2022-08-17T01:28:54.348Z,11.35
2022-08-17T01:31:22.780Z,11.50
2022-08-17T01:33:49.203Z,11.27
2022-08-17T01:36:15.566Z,12.82
2022-08-17T01:38:42.019Z,13.27
2022-08-17T01:41:11.741Z,12.27
2022-08-17T01:43:41.498Z,12.45
2022-08-17T01:46:08.065Z,13.02
2022-08-17T01:48:35.727Z,12.18
2022-08-17T01:51:02.278Z,13.10
2022-08-17T01:53:32.559Z,12.48
2022-08-17T01:56:01.317Z,12.70
2022-08-17T01:58:28.118Z,12.80
2022-08-17T02:01:00.982Z,12.90
2022-08-17T02:03:28.437Z,11.75
2022-08-17T02:05:55.081Z,11.23
2022-08-17T02:08:38.739Z,11.80
2022-08-17T02:11:08.960Z,12.90
2022-08-17T02:13:38.173Z,11.23
2022-08-17T02:16:04.666Z,12.88
2022-08-17T02:18:31.241Z,12.70
2022-08-17T02:20:57.701Z,12.00
2022-08-17T02:23:25.319Z,14.75
2022-08-17T02:25:52.060Z,12.00
2022-08-17T02:28:18.745Z,15.45
2022-08-17T02:31:01.693Z,13.05
2022-08-17T02:33:42.973Z,12.65
2022-08-17T02:36:11.511Z,13.85
2022-08-17T02:38:38.318Z,13.65
2022-08-17T02:41:05.169Z,11.73
2022-08-17T02:43:31.717Z,13.45
2022-08-17T02:45:58.321Z,12.73
2022-08-17T02:48:30.573Z,12.68
2022-08-17T02:50:58.235Z,12.20
2022-08-17T02:53:24.744Z,11.98
2022-08-17T02:55:52.716Z,12.38
2022-08-17T02:58:34.278Z,11.75
2022-08-17T03:01:03.295Z,13.15
2022-08-17T03:03:29.816Z,13.48
2022-08-17T03:05:56.424Z,13.65
2022-08-17T03:08:23.502Z,13.77
2022-08-17T03:10:50.629Z,13.30
2022-08-17T03:13:17.650Z,12.60
2022-08-17T03:15:45.364Z,14.02
2022-08-17T03:18:18.875Z,15.80
2022-08-17T03:20:51.239Z,11.75
2022-08-17T03:23:17.697Z,11.52
2022-08-17T03:25:46.052Z,12.98
2022-08-17T03:28:12.661Z,12.00
2022-08-17T03:30:40.018Z,15.40
2022-08-17T03:33:07.477Z,13.27
2022-08-17T03:35:34.891Z,11.95
2022-08-17T03:38:01.573Z,11.80
2022-08-17T03:40:55.008Z,12.57
2022-08-17T03:43:15.513Z,12.50
2022-08-17T03:46:02.271Z,12.52
2022-08-17T03:48:47.407Z,12.25
2022-08-17T03:51:36.414Z,13.18
2022-08-17T03:54:21.795Z,11.45
2022-08-17T03:56:53.318Z,11.70
2022-08-17T03:59:22.506Z,12.02
2022-08-17T04:01:51.186Z,11.18
2022-08-17T04:04:19.987Z,12.57
2022-08-17T04:06:54.150Z,16.63
2022-08-17T04:09:20.739Z,11.70
2022-08-17T04:11:47.316Z,12.40
2022-08-17T04:14:13.842Z,12.18
2022-08-17T04:16:40.407Z,12.80
2022-08-17T04:19:06.928Z,14.50
2022-08-17T04:21:34.484Z,11.93
2022-08-17T04:24:01.537Z,14.00
2022-08-17T04:26:52.560Z,11.60
2022-08-17T04:29:16.773Z,12.38
2022-08-17T04:31:43.453Z,12.05
2022-08-17T04:34:10.452Z,11.80
2022-08-17T04:36:36.956Z,11.55
2022-08-17T04:39:03.472Z,11.77
2022-08-17T04:41:48.888Z,12.70
2022-08-17T04:44:15.400Z,14.38
2022-08-17T04:47:02.253Z,11.32
2022-08-17T04:49:28.705Z,12.43
2022-08-17T04:52:01.287Z,12.80
2022-08-17T04:54:31.099Z,10.93
2022-08-17T04:56:57.575Z,14.27
2022-08-17T04:59:24.043Z,11.48
2022-08-17T05:01:51.355Z,11.25
2022-08-17T05:04:34.411Z,11.57
2022-08-17T05:07:02.211Z,11.23
2022-08-17T05:09:29.128Z,13.02
2022-08-17T05:11:56.233Z,12.45
2022-08-17T05:14:32.323Z,15.55
2022-08-17T05:17:01.518Z,13.95
2022-08-17T05:19:33.406Z,16.75
2022-08-17T05:21:59.790Z,11.60
2022-08-17T05:24:42.601Z,12.40
2022-08-17T05:27:18.808Z,13.15
2022-08-17T05:29:45.712Z,10.95
2022-08-17T05:32:37.897Z,12.32
2022-08-17T05:35:00.553Z,12.25
2022-08-17T05:37:27.506Z,11.68
2022-08-17T05:39:53.949Z,12.57
2022-08-17T05:42:20.493Z,10.80
2022-08-17T05:44:47.168Z,12.40
2022-08-17T05:47:13.611Z,13.20
2022-08-17T05:49:39.991Z,14.48
2022-08-17T05:52:23.553Z,13.10
2022-08-17T05:54:55.869Z,14.50
2022-08-17T05:57:43.566Z,18.40
2022-08-17T06:00:30.022Z,22.20
2022-08-17T06:03:00.858Z,12.52
2022-08-17T06:05:50.508Z,14.00
2022-08-17T06:08:33.576Z,12.50
2022-08-17T06:11:06.147Z,11.90
2022-08-17T06:13:45.863Z,11.18
2022-08-17T06:16:33.759Z,12.75
2022-08-17T06:19:04.541Z,13.27
2022-08-17T06:21:34.088Z,12.65
2022-08-17T06:24:08.196Z,14.38
2022-08-17T06:26:42.451Z,11.60
2022-08-17T06:29:35.345Z,8.40
2022-08-17T06:32:02.681Z,8.35
2022-08-17T06:34:29.847Z,7.85
2022-08-17T06:37:05.603Z,8.85
2022-08-17T06:39:41.351Z,11.45
2022-08-17T06:43:05.074Z,10.25
2022-08-17T06:45:07.912Z,8.30
2022-08-17T06:47:36.371Z,16.92
2022-08-17T06:50:08.927Z,8.13
2022-08-17T06:52:55.775Z,11.27
2022-08-17T06:55:28.466Z,10.57
2022-08-17T06:57:58.065Z,9.15
2022-08-17T07:00:27.771Z,9.20
2022-08-17T07:03:26.444Z,11.25
2022-08-17T07:05:54.171Z,7.22
2022-08-17T07:08:35.124Z,8.20
2022-08-17T07:11:09.779Z,10.50
2022-08-17T07:13:51.674Z,8.07
2022-08-17T07:16:26.697Z,7.90
2022-08-17T07:18:54.750Z,11.63
2022-08-17T07:21:38.599Z,8.02
2022-08-17T07:24:29.237Z,11.57
2022-08-17T07:27:06.351Z,8.93
2022-08-17T07:29:35.056Z,6.82
2022-08-17T07:32:02.240Z,10.25
2022-08-17T07:34:29.212Z,7.25
2022-08-17T07:37:05.247Z,10.43
2022-08-17T07:39:31.706Z,7.45
2022-08-17T07:42:02.692Z,6.10
2022-08-17T07:44:29.199Z,8.18
2022-08-17T07:47:14.608Z,6.07
2022-08-17T07:49:45.985Z,6.65
2022-08-17T07:52:48.535Z,7.68
2022-08-17T07:55:25.181Z,6.22
2022-08-17T07:57:55.523Z,5.38
2022-08-17T08:00:31.783Z,7.88
2022-08-17T08:03:14.744Z,8.45
2022-08-17T08:05:52.195Z,4.35
2022-08-17T08:08:21.679Z,4.15
2022-08-17T08:10:58.195Z,5.50
2022-08-17T08:13:25.901Z,8.77
2022-08-17T08:15:55.248Z,5.55
2022-08-17T08:18:53.354Z,8.37
2022-08-17T08:21:12.987Z,5.72
2022-08-17T08:24:05.892Z,5.43
2022-08-17T08:26:50.889Z,4.93
2022-08-17T08:29:38.072Z,9.35
2022-08-17T08:32:40.536Z,5.15
2022-08-17T08:35:08.664Z,5.25
2022-08-17T08:37:50.369Z,5.93
2022-08-17T08:40:20.027Z,6.15
2022-08-17T08:43:06.314Z,6.32
2022-08-17T08:45:51.647Z,6.43
2022-08-17T08:48:58.683Z,8.00
2022-08-17T08:51:40.089Z,4.72
2022-08-17T08:54:22.328Z,7.55
2022-08-17T08:57:22.842Z,5.90
2022-08-17T09:00:02.945Z,6.70
2022-08-17T09:02:38.155Z,6.75
2022-08-17T09:05:20.273Z,4.30
2022-08-17T09:07:46.723Z,4.70
2022-08-17T09:10:19.607Z,4.53
2022-08-17T09:12:47.599Z,5.15
2022-08-17T09:15:25.671Z,5.07
2022-08-17T09:18:58.941Z,5.05
2022-08-17T09:20:51.156Z,6.43
2022-08-17T09:23:17.545Z,4.20
2022-08-17T09:25:49.787Z,4.63
2022-08-17T09:28:20.918Z,6.13
2022-08-17T09:30:49.609Z,3.85
2022-08-17T09:33:18.848Z,5.93
2022-08-17T09:35:48.222Z,4.97
2022-08-17T09:38:38.087Z,5.13
2022-08-17T09:41:23.846Z,4.10
2022-08-17T09:44:08.504Z,3.00
2022-08-17T09:47:07.982Z,5.82
2022-08-17T09:49:58.694Z,3.97
2022-08-17T09:52:27.049Z,4.40
2022-08-17T09:54:54.242Z,4.45
2022-08-17T09:57:34.545Z,6.35
2022-08-17T10:00:13.076Z,8.98
2022-08-17T10:02:54.548Z,4.95
2022-08-17T10:05:27.405Z,4.03
2022-08-17T10:08:03.660Z,4.55
2022-08-17T10:10:36.023Z,4.82
2022-08-17T10:13:10.627Z,4.25
2022-08-17T10:15:50.231Z,4.88
2022-08-17T10:18:25.397Z,4.55
2022-08-17T10:25:21.068Z,6.53
2022-08-17T10:27:44.964Z,4.95
2022-08-17T10:30:15.737Z,4.35
2022-08-17T10:32:47.983Z,5.22
2022-08-17T10:35:27.326Z,3.22
2022-08-17T10:38:12.645Z,5.73
2022-08-17T10:40:51.807Z,8.07
2022-08-17T10:43:23.552Z,3.70
2022-08-17T10:46:09.490Z,4.38
2022-08-17T10:49:07.625Z,5.30
2022-08-17T10:51:37.949Z,3.45
2022-08-17T10:54:05.647Z,6.20
2022-08-17T10:56:46.882Z,6.05
2022-08-17T10:59:33.237Z,4.20
2022-08-17T11:02:03.257Z,5.43
2022-08-17T11:04:48.186Z,3.88
2022-08-17T11:07:32.560Z,7.03
2022-08-17T11:09:58.956Z,3.50
2022-08-17T11:12:37.760Z,2.97
2022-08-17T11:15:13.849Z,3.05
2022-08-17T11:17:49.707Z,4.65
2022-08-17T11:20:25.345Z,4.53
2022-08-17T11:22:57.978Z,4.43
2022-08-17T11:25:36.051Z,4.50
2022-08-17T11:28:07.329Z,4.65
2022-08-17T11:30:43.563Z,4.63
2022-08-17T11:33:29.274Z,3.30
2022-08-17T11:36:16.556Z,6.25
2022-08-17T11:38:50.470Z,3.60
2022-08-17T11:41:24.007Z,5.53
2022-08-17T11:43:59.131Z,4.97
2022-08-17T11:46:57.054Z,5.13
2022-08-17T11:50:01.508Z,6.22
2022-08-17T11:52:48.438Z,5.10
2022-08-17T11:55:37.477Z,4.13
2022-08-17T11:58:25.979Z,5.72
2022-08-17T12:00:56.580Z,5.25
2022-08-17T12:03:55.443Z,3.58
2022-08-17T12:06:41.289Z,6.20
2022-08-17T12:09:18.848Z,4.60
2022-08-17T12:12:01.623Z,3.92
2022-08-17T12:15:08.998Z,5.10
2022-08-17T12:17:41.106Z,4.50
2022-08-17T12:20:31.420Z,5.72
2022-08-17T12:23:15.247Z,4.05
2022-08-17T12:25:51.354Z,7.90
2022-08-17T12:28:28.229Z,4.60
2022-08-17T12:30:56.264Z,3.20
2022-08-17T12:33:28.375Z,3.55
2022-08-17T12:35:59.464Z,6.82
2022-08-17T12:38:32.420Z,5.65
2022-08-17T12:41:20.487Z,4.63
2022-08-17T12:43:54.862Z,4.70
2022-08-17T12:46:21.251Z,6.78
2022-08-17T12:48:58.765Z,5.28
2022-08-17T12:51:25.906Z,3.25
2022-08-17T12:53:54.307Z,3.92
2022-08-17T12:56:21.342Z,4.05
2022-08-17T12:58:54.279Z,6.18
2022-08-17T13:01:21.036Z,8.32
2022-08-17T13:03:49.539Z,5.60
2022-08-17T13:06:30.113Z,6.35
2022-08-17T13:08:56.519Z,4.78
2022-08-17T13:11:47.720Z,6.18
2022-08-17T13:14:14.370Z,7.30
2022-08-17T13:16:47.093Z,4.15
2022-08-17T13:19:15.804Z,4.38
2022-08-17T13:21:47.994Z,4.57
2022-08-17T13:24:16.825Z,5.15
2022-08-17T13:26:49.067Z,3.75
2022-08-17T13:29:23.873Z,3.42
2022-08-17T13:32:13.506Z,4.15
2022-08-17T13:35:12.880Z,6.88
2022-08-17T13:37:35.699Z,3.40
2022-08-17T13:40:08.021Z,5.53
2022-08-17T13:42:52.023Z,2.75
2022-08-17T13:45:36.571Z,3.20
2022-08-17T13:48:12.412Z,5.38
2022-08-17T13:50:48.085Z,4.22
2022-08-17T13:53:20.820Z,5.15
2022-08-17T13:55:55.241Z,3.67
2022-08-17T13:58:23.885Z,4.20
2022-08-17T14:00:51.658Z,4.60
2022-08-17T14:03:18.473Z,4.60
2022-08-17T14:05:46.067Z,3.10
2022-08-17T14:08:13.466Z,4.53
2022-08-17T14:10:40.020Z,4.10
2022-08-17T14:13:07.239Z,4.10
2022-08-17T14:15:55.223Z,4.25
2022-08-17T14:18:35.691Z,4.72
2022-08-17T14:21:08.647Z,3.88
2022-08-17T14:23:35.410Z,5.50
2022-08-17T14:26:01.952Z,6.32
2022-08-17T14:28:28.450Z,5.68
2022-08-17T14:30:55.447Z,3.25
2022-08-17T14:33:22.868Z,5.93
2022-08-17T14:35:53.423Z,4.07
2022-08-17T14:38:20.534Z,6.13
2022-08-17T14:40:48.068Z,4.00
2022-08-17T14:43:15.993Z,6.75
2022-08-17T14:45:42.886Z,6.85
2022-08-17T14:48:09.365Z,4.25
2022-08-17T14:50:38.340Z,4.80
2022-08-17T14:53:05.983Z,5.35
2022-08-17T14:55:32.678Z,5.20
2022-08-17T14:57:59.219Z,4.22
2022-08-17T15:00:26.745Z,3.28
2022-08-17T15:02:54.850Z,3.13
2022-08-17T15:05:22.395Z,5.13
2022-08-17T15:07:49.105Z,5.55
2022-08-17T15:10:16.236Z,6.20
2022-08-17T15:12:42.629Z,4.15
2022-08-17T15:15:10.751Z,4.35
2022-08-17T15:17:43.979Z,4.68
2022-08-17T15:20:25.061Z,6.80
2022-08-17T15:22:55.339Z,3.78
2022-08-17T15:25:22.399Z,5.70
2022-08-17T15:27:49.262Z,4.22
2022-08-17T15:30:15.920Z,3.85
2022-08-17T15:32:50.624Z,4.13
2022-08-17T15:35:25.152Z,3.53
2022-08-17T15:37:54.948Z,5.45
2022-08-17T15:40:21.319Z,4.93
2022-08-17T15:42:47.715Z,8.25
2022-08-17T15:45:16.455Z,7.10
2022-08-17T15:47:43.241Z,6.18
2022-08-17T15:50:10.156Z,7.53
2022-08-17T15:52:40.138Z,3.72
2022-08-17T15:55:08.826Z,6.50
2022-08-17T15:57:35.390Z,8.80
2022-08-17T16:00:03.352Z,6.20
2022-08-17T16:03:44.508Z,4.05
2022-08-17T16:05:28.146Z,4.15
2022-08-17T16:07:57.578Z,5.45
2022-08-17T16:10:35.187Z,4.45
2022-08-17T16:13:02.598Z,6.30
2022-08-17T16:15:31.070Z,3.42
2022-08-17T16:17:57.470Z,5.25
2022-08-17T16:20:23.856Z,6.28
2022-08-17T16:22:50.574Z,4.63
2022-08-17T16:25:18.964Z,7.35
2022-08-17T16:27:46.318Z,5.72
2022-08-17T16:30:17.102Z,6.35
2022-08-17T16:32:44.284Z,5.47
2022-08-17T16:35:12.383Z,5.07
2022-08-17T16:37:40.405Z,6.10
2022-08-17T16:40:12.137Z,5.03
2022-08-17T16:42:39.701Z,4.10
2022-08-17T16:45:14.600Z,6.55
2022-08-17T16:47:41.934Z,5.03
2022-08-17T16:50:09.549Z,7.57
2022-08-17T16:52:36.547Z,5.70
2022-08-17T16:55:03.735Z,5.00
2022-08-17T16:57:30.236Z,8.05
2022-08-17T16:59:57.066Z,6.20
2022-08-17T17:02:25.168Z,8.57
2022-08-17T17:05:07.433Z,9.88
2022-08-17T17:07:53.351Z,7.57
2022-08-17T17:10:22.366Z,5.25
2022-08-17T17:13:03.014Z,8.88
2022-08-17T17:15:42.812Z,6.43
2022-08-17T17:18:11.482Z,7.15
2022-08-17T17:20:50.931Z,7.30
2022-08-17T17:23:27.810Z,7.20
2022-08-17T17:25:57.163Z,9.55
2022-08-17T17:28:24.756Z,7.40
2022-08-17T17:31:03.264Z,7.50
2022-08-17T17:33:36.845Z,7.47
2022-08-17T17:36:22.036Z,9.25
2022-08-17T17:38:51.343Z,6.72
2022-08-17T17:41:28.979Z,5.25
2022-08-17T17:44:02.803Z,5.38
2022-08-17T17:46:33.338Z,8.60
2022-08-17T17:49:00.020Z,5.25
2022-08-17T17:52:06.537Z,7.20
2022-08-17T17:54:22.723Z,4.35
2022-08-17T17:56:52.915Z,5.82
2022-08-17T17:59:32.736Z,7.20
2022-08-17T18:02:03.989Z,4.70
2022-08-17T18:04:41.323Z,4.82
2022-08-17T18:07:17.845Z,7.20
2022-08-17T18:10:01.394Z,9.70
2022-08-17T18:12:34.496Z,5.28
2022-08-17T18:15:10.278Z,6.63
2022-08-17T18:17:36.780Z,6.28
2022-08-17T18:20:04.396Z,7.90
2022-08-17T18:22:31.328Z,7.93
2022-08-17T18:24:57.718Z,5.07
2022-08-17T18:27:27.083Z,6.47
2022-08-17T18:29:55.471Z,6.38
2022-08-17T18:32:27.150Z,7.68
2022-08-17T18:34:58.953Z,7.53
2022-08-17T18:37:33.509Z,5.90
2022-08-17T18:40:20.013Z,7.22
2022-08-17T18:42:59.097Z,7.97
2022-08-17T18:45:41.691Z,9.95
2022-08-17T18:48:25.491Z,6.60
2022-08-17T18:50:53.471Z,10.05
2022-08-17T18:53:26.530Z,5.55
2022-08-17T18:56:13.467Z,10.30
2022-08-17T18:58:39.881Z,7.80
2022-08-17T19:01:16.971Z,8.85
2022-08-17T19:03:46.455Z,8.77
2022-08-17T19:06:33.100Z,5.88
2022-08-17T19:09:00.015Z,8.82
2022-08-17T19:11:31.568Z,7.35
2022-08-17T19:14:01.715Z,6.90
2022-08-17T19:16:40.372Z,9.75
2022-08-17T19:19:14.357Z,9.32
2022-08-17T19:21:47.027Z,6.43
2022-08-17T19:24:19.480Z,6.90
2022-08-17T19:26:54.710Z,8.07
2022-08-17T19:29:29.607Z,6.25
2022-08-17T19:31:58.462Z,9.73
2022-08-17T19:34:33.637Z,7.75
2022-08-17T19:37:12.789Z,8.80
2022-08-17T19:39:45.213Z,7.50
2022-08-17T19:42:31.024Z,8.55
2022-08-17T19:45:07.230Z,9.45
2022-08-17T19:47:55.914Z,10.68
2022-08-17T19:50:31.711Z,7.85
2022-08-17T19:53:09.531Z,9.23
2022-08-17T19:55:35.895Z,9.57
2022-08-17T19:58:17.813Z,8.45
2022-08-17T20:00:49.045Z,10.82
2022-08-17T20:03:31.816Z,11.15
2022-08-17T20:06:12.503Z,7.95
2022-08-17T20:08:45.764Z,10.65
2022-08-17T20:11:19.270Z,11.57
2022-08-17T20:13:54.274Z,9.55
2022-08-17T20:16:20.675Z,9.02
2022-08-17T20:18:47.636Z,13.15
2022-08-17T20:21:26.986Z,8.40
2022-08-17T20:24:00.372Z,8.63
2022-08-17T20:26:34.843Z,10.18
2022-08-17T20:29:13.769Z,12.65
2022-08-17T20:31:42.474Z,11.07
2022-08-17T20:34:33.615Z,11.15
2022-08-17T20:37:15.279Z,10.23
2022-08-17T20:39:46.058Z,10.00
2022-08-17T20:44:40.209Z,7.82
2022-08-17T20:47:18.022Z,9.30
2022-08-17T20:49:47.235Z,13.85
2022-08-17T20:52:16.577Z,8.30
2022-08-17T20:54:53.697Z,8.93
2022-08-17T20:57:32.398Z,8.50
2022-08-17T21:00:15.418Z,8.02
2022-08-17T21:02:46.348Z,6.60
2022-08-17T21:07:51.734Z,10.20
2022-08-17T21:10:21.174Z,9.80
2022-08-17T21:13:01.220Z,9.25
2022-08-17T21:15:34.885Z,8.33
2022-08-17T21:18:06.609Z,12.77
2022-08-17T21:20:39.525Z,11.63
2022-08-17T21:23:08.944Z,8.48
2022-08-17T21:25:48.217Z,13.32
2022-08-17T21:28:34.198Z,8.73
2022-08-17T21:31:08.353Z,11.68
2022-08-17T21:33:39.128Z,8.63
2022-08-17T21:36:11.726Z,8.35
2022-08-17T21:38:42.095Z,12.52
2022-08-17T21:41:18.794Z,7.75
2022-08-17T21:43:47.853Z,11.50
2022-08-17T21:46:31.771Z,8.38
2022-08-17T21:49:03.194Z,10.20
2022-08-17T21:51:44.743Z,11.50
2022-08-17T21:54:27.122Z,8.70
2022-08-17T21:56:53.905Z,8.57
2022-08-17T21:59:28.413Z,7.82
2022-08-17T22:01:57.944Z,12.85
2022-08-17T22:04:25.912Z,10.90
2022-08-17T22:06:57.154Z,8.73
2022-08-17T22:09:26.298Z,10.20
2022-08-17T22:11:59.280Z,8.87
2022-08-17T22:14:53.118Z,9.23
2022-08-17T22:17:20.132Z,8.02
2022-08-17T22:19:49.082Z,10.75
2022-08-17T22:22:26.370Z,8.57
2022-08-17T22:25:02.239Z,9.57
2022-08-17T22:27:45.801Z,9.20
2022-08-17T22:30:18.360Z,11.60
2022-08-17T22:32:46.594Z,10.45
2022-08-17T22:35:39.120Z,8.32
2022-08-17T22:38:24.999Z,8.07
2022-08-17T22:40:53.819Z,8.32
2022-08-17T22:43:26.084Z,11.40
2022-08-17T22:45:54.495Z,7.35
2022-08-17T22:48:23.363Z,8.07
2022-08-17T22:51:03.122Z,8.32
2022-08-17T22:54:03.719Z,7.05
2022-08-17T22:56:48.952Z,10.07
2022-08-17T22:59:31.742Z,8.45
2022-08-17T23:02:16.340Z,6.97
2022-08-17T23:04:48.154Z,9.07
2022-08-17T23:07:15.107Z,7.30
2022-08-17T23:09:41.495Z,11.93
2022-08-17T23:12:11.537Z,9.73
2022-08-17T23:14:39.473Z,8.23
2022-08-17T23:17:06.527Z,8.38
2022-08-17T23:19:33.303Z,8.13
2022-08-17T23:22:01.618Z,7.28
2022-08-17T23:24:30.113Z,9.35
2022-08-17T23:26:58.073Z,7.88
2022-08-17T23:29:25.120Z,7.53
2022-08-17T23:31:52.234Z,7.90
2022-08-17T23:34:18.951Z,8.40
2022-08-17T23:36:53.124Z,11.25
2022-08-17T23:39:27.309Z,10.52
2022-08-17T23:41:54.484Z,7.03
2022-08-17T23:44:24.441Z,9.60
2022-08-17T23:46:51.402Z,9.53
2022-08-17T23:49:19.055Z,7.25
2022-08-17T23:51:46.601Z,7.75
2022-08-17T23:54:33.617Z,9.30
2022-08-17T23:57:00.779Z,7.35
2022-08-17T23:59:27.543Z,11.48
